Uvalde, Texas
Current Conditions -  °F | °C
As of 5:55 PM on Sunday 21 Dec 2014 (Local Time) from KUVA Reporting Station
Overcast Overcast  
Wind Chill: 53°   Ceiling: 1600
Heat Index: 53°   Visibility: 10mi
Dew Point: 48°   Wind: 6mph
Humidity: 85%   Direction: 120°ESE
Pressure: 29.91"   Gusts: NA
Location:  29.21°N, 99.79°W
Report Text: KUVA 212355Z AUTO 12005KT 10SM OVC016 12/09 A2991 RMK AO2 T01150090 10115 20087
Loading
Personal Weather Stations






























Interactive Weather Map New forecast layout! Learn more

10-Day Weather Forecast

Advertisements
Track Severe Weather on mobile